Time;durP1;ratioP1;P1;durP2;ratioP2;P2;SDS_P1;SDS_P2;PMS_P1;PMS_P2;Temp;Humidity;BMP_temperature;BMP_pressure;BME280_temperature;BME280_humidity;BME280_pressure;Samples;Min_cycle;Max_cycle;Signal;HPM_P1;HPM_P2
2023/10/11 00:00:24;;;;;;;14.97;9.90;;;21.30;50.40;;;;;;349676;28;1043;-59
2023/10/11 00:00:37;;;;;;;13.20;8.80;;;21.30;50.40;;;;;;349484;28;1101;-58
2023/10/11 00:00:48;;;;;;;12.13;8.93;;;21.30;50.40;;;;;;349624;28;1016;-58
2023/10/11 00:00:58;;;;;;;13.98;9.15;;;21.30;50.40;;;;;;349635;28;1627;-58
2023/10/11 00:01:09;;;;;;;14.25;9.02;;;21.30;50.40;;;;;;349723;28;983;-58
2023/10/11 00:01:22;;;;;;;14.65;8.90;;;21.30;50.40;;;;;;349607;28;1006;-58
2023/10/11 00:01:34;;;;;;;13.57;8.82;;;21.30;50.40;;;;;;349709;28;852;-58
2023/10/11 00:01:46;;;;;;;14.07;8.98;;;21.30;50.40;;;;;;349665;28;916;-59
2023/10/11 00:01:58;;;;;;;13.57;8.77;;;21.30;50.40;;;;;;349682;28;1137;-58
2023/10/11 00:02:08;;;;;;;14.35;8.68;;;21.30;50.40;;;;;;349504;28;1474;-59
2023/10/11 00:02:19;;;;;;;14.95;8.48;;;21.30;50.40;;;;;;349701;28;793;-58
2023/10/11 00:02:30;;;;;;;15.00;8.48;;;21.30;50.40;;;;;;349696;28;1393;-58
2023/10/11 00:02:44;;;;;;;13.63;8.38;;;21.30;50.40;;;;;;349706;28;980;-59
2023/10/11 00:02:59;;;;;;;12.18;8.55;;;21.30;50.30;;;;;;349607;28;1109;-58
2023/10/11 00:03:18;;;;;;;14.93;9.18;;;21.30;50.30;;;;;;349619;28;822;-58
2023/10/11 00:03:54;;;;;;;13.65;8.85;;;21.30;50.30;;;;;;349504;28;1643;-58
2023/10/11 00:04:23;;;;;;;15.35;8.95;;;21.30;50.20;;;;;;349641;28;1161;-58
2023/10/11 00:04:34;;;;;;;14.27;9.32;;;21.30;50.30;;;;;;349561;28;994;-58
2023/10/11 00:04:48;;;;;;;13.20;9.20;;;21.30;50.30;;;;;;349697;28;1035;-58
2023/10/11 00:04:59;;;;;;;13.68;9.30;;;21.30;50.30;;;;;;349677;28;944;-59
2023/10/11 00:05:10;;;;;;;14.85;9.20;;;21.30;50.20;;;;;;349644;28;837;-59
2023/10/11 00:05:21;;;;;;;14.52;9.32;;;21.30;50.20;;;;;;349564;28;999;-59
2023/10/11 00:05:37;;;;;;;14.40;9.57;;;21.30;50.20;;;;;;349696;28;1901;-59
2023/10/11 00:05:47;;;;;;;13.10;9.30;;;21.30;50.20;;;;;;349650;28;1184;-58
2023/10/11 00:06:00;;;;;;;12.73;8.83;;;21.30;50.20;;;;;;349549;28;1161;-58
2023/10/11 00:06:11;;;;;;;15.68;8.93;;;21.30;50.20;;;;;;349441;28;1123;-59
2023/10/11 00:06:24;;;;;;;14.07;8.80;;;21.30;50.30;;;;;;349513;28;888;-58
2023/10/11 00:06:35;;;;;;;13.98;9.20;;;21.30;50.30;;;;;;349540;28;1047;-59
2023/10/11 00:06:49;;;;;;;12.63;9.30;;;21.30;50.30;;;;;;349536;28;1003;-58
2023/10/11 00:07:00;;;;;;;14.98;9.60;;;21.30;50.30;;;;;;349489;28;1027;-57
2023/10/11 00:07:11;;;;;;;15.93;9.30;;;21.30;50.40;;;;;;349534;28;953;-58
2023/10/11 00:07:21;;;;;;;14.38;9.18;;;21.30;50.30;;;;;;349568;28;817;-58
2023/10/11 00:07:32;;;;;;;13.35;8.90;;;21.30;50.30;;;;;;349545;28;1007;-58
2023/10/11 00:07:45;;;;;;;13.13;9.13;;;21.30;50.30;;;;;;349516;28;913;-57
2023/10/11 00:07:58;;;;;;;12.27;9.27;;;21.30;50.30;;;;;;349569;28;952;-58
2023/10/11 00:08:13;;;;;;;13.38;9.27;;;21.30;50.30;;;;;;349665;28;865;-59
2023/10/11 00:08:26;;;;;;;14.27;9.30;;;21.30;50.30;;;;;;349541;28;1889;-58
2023/10/11 00:08:40;;;;;;;15.05;9.38;;;21.30;50.30;;;;;;349518;28;995;-58
2023/10/11 00:08:51;;;;;;;15.45;9.50;;;21.30;50.30;;;;;;349675;28;975;-58
2023/10/11 00:09:02;;;;;;;14.30;9.20;;;21.30;50.30;;;;;;349653;28;1277;-58
2023/10/11 00:09:16;;;;;;;11.98;9.30;;;21.30;50.30;;;;;;349689;28;833;-57
2023/10/11 00:09:35;;;;;;;12.55;9.45;;;21.30;50.30;;;;;;349582;28;2126;-58
2023/10/11 00:09:51;;;;;;;13.27;9.68;;;21.30;50.30;;;;;;349581;28;1206;-59
2023/10/11 00:10:10;;;;;;;13.10;9.30;;;21.30;50.30;;;;;;349682;28;976;-58
2023/10/11 00:10:22;;;;;;;14.27;9.43;;;21.30;50.30;;;;;;349595;28;1475;-57
2023/10/11 00:10:33;;;;;;;15.32;9.73;;;21.20;50.30;;;;;;349553;28;1134;-58
2023/10/11 00:10:58;;;;;;;15.23;9.63;;;21.20;50.30;;;;;;349592;28;1024;-59
2023/10/11 00:11:09;;;;;;;13.80;9.63;;;21.30;50.30;;;;;;349632;28;1205;-57
2023/10/11 00:11:24;;;;;;;14.77;9.50;;;21.30;50.30;;;;;;349636;28;1433;-57
2023/10/11 00:11:38;;;;;;;14.43;9.50;;;21.30;50.30;;;;;;349556;28;890;-58
2023/10/11 00:11:49;;;;;;;13.85;9.52;;;21.30;50.30;;;;;;349614;28;1126;-58
2023/10/11 00:12:00;;;;;;;13.80;9.50;;;21.30;50.30;;;;;;349596;28;1103;-58
2023/10/11 00:12:11;;;;;;;14.63;9.40;;;21.30;50.30;;;;;;349598;28;1158;-58
2023/10/11 00:12:24;;;;;;;14.52;9.02;;;21.30;50.30;;;;;;349642;28;987;-58
2023/10/11 00:12:35;;;;;;;14.88;8.77;;;21.20;50.30;;;;;;349618;28;1966;-58
2023/10/11 00:12:46;;;;;;;15.38;9.45;;;21.30;50.30;;;;;;349588;28;1136;-58
2023/10/11 00:12:58;;;;;;;14.95;9.57;;;21.20;50.30;;;;;;349662;28;1098;-58
2023/10/11 00:13:10;;;;;;;15.05;9.57;;;21.20;50.30;;;;;;349643;28;1054;-58
2023/10/11 00:13:23;;;;;;;13.25;9.35;;;21.30;50.30;;;;;;349576;28;1277;-57
2023/10/11 00:13:35;;;;;;;13.40;9.63;;;21.30;50.30;;;;;;349701;28;979;-58
2023/10/11 00:13:46;;;;;;;13.27;9.65;;;21.20;50.30;;;;;;349633;28;987;-59
2023/10/11 00:13:57;;;;;;;14.03;9.63;;;21.30;50.30;;;;;;349588;28;1114;-58
2023/10/11 00:14:08;;;;;;;13.20;9.60;;;21.30;50.30;;;;;;349662;28;900;-58
2023/10/11 00:14:19;;;;;;;13.50;10.02;;;21.20;50.30;;;;;;349649;28;1106;-58
2023/10/11 00:14:39;;;;;;;14.38;10.38;;;21.30;50.20;;;;;;349500;28;1090;-58
2023/10/11 00:14:50;;;;;;;15.18;10.23;;;21.30;50.30;;;;;;349610;28;1177;-58
2023/10/11 00:15:01;;;;;;;13.17;10.20;;;21.30;50.30;;;;;;349591;28;1038;-57
2023/10/11 00:15:12;;;;;;;13.98;10.50;;;21.20;50.30;;;;;;349690;28;860;-58
2023/10/11 00:15:26;;;;;;;14.73;10.43;;;21.20;50.30;;;;;;349628;28;1099;-58
2023/10/11 00:15:37;;;;;;;15.43;10.05;;;21.20;50.30;;;;;;349593;28;1078;-59
2023/10/11 00:15:50;;;;;;;15.63;10.45;;;21.30;50.30;;;;;;349533;28;1015;-59
2023/10/11 00:16:08;;;;;;;17.00;11.43;;;21.20;50.30;;;;;;349677;28;947;-58
2023/10/11 00:16:21;;;;;;;16.15;11.23;;;21.20;50.30;;;;;;349491;28;1622;-58
2023/10/11 00:16:35;;;;;;;15.70;10.85;;;21.30;50.30;;;;;;349590;28;1043;-57
2023/10/11 00:16:45;;;;;;;19.36;11.32;;;21.30;50.30;;;;;;349587;28;1047;-58
2023/10/11 00:16:57;;;;;;;20.23;11.60;;;21.30;50.30;;;;;;349657;28;837;-58
2023/10/11 00:17:10;;;;;;;18.15;11.27;;;21.30;50.30;;;;;;349549;28;1032;-58
2023/10/11 00:17:20;;;;;;;16.52;10.80;;;21.30;50.30;;;;;;349540;28;1924;-58
2023/10/11 00:17:32;;;;;;;16.23;10.77;;;21.30;50.30;;;;;;349605;28;1094;-58
2023/10/11 00:17:46;;;;;;;16.73;10.52;;;21.30;50.20;;;;;;349648;28;1106;-58
2023/10/11 00:17:56;;;;;;;15.70;10.30;;;21.30;50.20;;;;;;349689;28;969;-58
2023/10/11 00:18:07;;;;;;;15.40;10.00;;;21.30;50.30;;;;;;349547;28;1055;-58
2023/10/11 00:18:23;;;;;;;15.02;9.68;;;21.30;50.30;;;;;;349660;28;1000;-58
2023/10/11 00:18:44;;;;;;;13.30;9.52;;;21.30;50.30;;;;;;349661;28;945;-58
2023/10/11 00:18:55;;;;;;;13.43;9.65;;;21.30;50.30;;;;;;349500;28;1122;-59
2023/10/11 00:19:09;;;;;;;15.02;10.10;;;21.30;50.20;;;;;;349668;28;968;-58
2023/10/11 00:19:22;;;;;;;16.25;10.25;;;21.30;50.30;;;;;;349634;28;1023;-59
2023/10/11 00:19:33;;;;;;;16.25;10.43;;;21.30;50.30;;;;;;349678;28;999;-59
2023/10/11 00:19:45;;;;;;;15.52;10.23;;;21.30;50.30;;;;;;349589;28;1094;-58
2023/10/11 00:19:57;;;;;;;16.13;10.27;;;21.30;50.20;;;;;;349619;28;1514;-59
2023/10/11 00:20:16;;;;;;;16.83;10.20;;;21.30;50.30;;;;;;349580;28;1502;-58
2023/10/11 00:20:51;;;;;;;16.42;10.43;;;21.30;50.30;;;;;;349559;28;1379;-59
2023/10/11 00:21:10;;;;;;;13.90;10.48;;;21.30;50.30;;;;;;349582;28;992;-58
2023/10/11 00:21:35;;;;;;;12.88;10.20;;;21.30;50.30;;;;;;349622;28;1338;-58
2023/10/11 00:21:45;;;;;;;15.38;10.35;;;21.20;50.30;;;;;;349641;28;951;-59
2023/10/11 00:21:57;;;;;;;16.10;9.93;;;21.30;50.30;;;;;;349605;28;1031;-59
2023/10/11 00:22:07;;;;;;;16.30;9.80;;;21.20;50.20;;;;;;349614;28;1013;-59
2023/10/11 00:22:18;;;;;;;14.70;9.60;;;21.30;50.30;;;;;;349639;28;980;-58
2023/10/11 00:22:29;;;;;;;15.52;9.70;;;21.30;50.20;;;;;;349643;28;1185;-59
2023/10/11 00:22:39;;;;;;;17.53;9.70;;;21.30;50.20;;;;;;349580;28;942;-59
2023/10/11 00:22:51;;;;;;;16.83;9.85;;;21.30;50.20;;;;;;349669;28;1047;-58
2023/10/11 00:23:01;;;;;;;15.80;9.90;;;21.30;50.20;;;;;;349582;28;1482;-58
2023/10/11 00:23:14;;;;;;;14.00;9.93;;;21.30;50.20;;;;;;349582;28;1173;-58
2023/10/11 00:23:27;;;;;;;13.48;9.93;;;21.30;50.30;;;;;;349592;28;853;-58
2023/10/11 00:23:43;;;;;;;13.00;9.30;;;21.30;50.30;;;;;;349672;28;824;-59
2023/10/11 00:23:54;;;;;;;13.43;8.82;;;21.30;50.30;;;;;;349561;28;1222;-58
2023/10/11 00:24:07;;;;;;;13.40;8.95;;;21.30;50.30;;;;;;349681;28;841;-58
2023/10/11 00:24:17;;;;;;;13.27;8.80;;;21.30;50.30;;;;;;349690;28;1105;-58
2023/10/11 00:24:28;;;;;;;13.70;9.00;;;21.30;50.30;;;;;;349548;28;1078;-58
2023/10/11 00:24:39;;;;;;;14.13;9.18;;;21.30;50.40;;;;;;349604;28;1114;-58
2023/10/11 00:24:50;;;;;;;13.80;9.35;;;21.30;50.40;;;;;;349643;28;820;-59
2023/10/11 00:25:01;;;;;;;14.00;9.20;;;21.30;50.40;;;;;;349514;28;1425;-57
2023/10/11 00:25:24;;;;;;;13.35;9.20;;;21.30;50.40;;;;;;349642;28;1095;-57
2023/10/11 00:25:34;;;;;;;14.05;9.73;;;21.30;50.30;;;;;;349542;28;1150;-59
2023/10/11 00:25:45;;;;;;;14.05;10.43;;;21.30;50.40;;;;;;349557;28;1107;-58
2023/10/11 00:26:03;;;;;;;14.60;10.93;;;21.30;50.40;;;;;;349683;28;853;-58
2023/10/11 00:26:14;;;;;;;15.50;11.25;;;21.30;50.40;;;;;;349635;28;920;-59
2023/10/11 00:26:25;;;;;;;16.25;11.10;;;21.30;50.40;;;;;;349670;28;1074;-58
2023/10/11 00:26:40;;;;;;;21.05;11.07;;;21.30;50.30;;;;;;349559;28;898;-58
2023/10/11 00:26:51;;;;;;;20.00;10.63;;;21.30;50.30;;;;;;349610;28;1102;-58
2023/10/11 00:27:02;;;;;;;16.25;10.70;;;21.30;50.40;;;;;;349564;28;1290;-58
2023/10/11 00:27:13;;;;;;;16.88;11.00;;;21.30;50.40;;;;;;349684;28;980;-58
2023/10/11 00:27:28;;;;;;;17.35;10.90;;;21.30;50.40;;;;;;349522;28;1023;-58
2023/10/11 00:27:39;;;;;;;16.77;10.43;;;21.30;50.40;;;;;;349634;28;991;-57
2023/10/11 00:27:58;;;;;;;16.50;10.02;;;21.20;50.40;;;;;;349627;28;1035;-58
2023/10/11 00:28:09;;;;;;;16.10;10.30;;;21.30;50.40;;;;;;349492;28;1106;-58
2023/10/11 00:28:23;;;;;;;15.20;10.00;;;21.20;50.40;;;;;;349712;28;829;-58
2023/10/11 00:28:37;;;;;;;13.50;9.32;;;21.30;50.30;;;;;;349580;28;1043;-58
2023/10/11 00:28:48;;;;;;;12.63;8.95;;;21.30;50.30;;;;;;349639;28;1075;-58
2023/10/11 00:29:00;;;;;;;13.93;9.38;;;21.30;50.40;;;;;;349532;28;1141;-57
2023/10/11 00:29:11;;;;;;;13.60;9.40;;;21.30;50.40;;;;;;349623;28;1119;-58
2023/10/11 00:29:22;;;;;;;13.30;9.32;;;21.30;50.40;;;;;;349672;28;947;-58
2023/10/11 00:29:39;;;;;;;11.57;8.73;;;21.30;50.40;;;;;;349616;28;1449;-58
2023/10/11 00:29:50;;;;;;;13.15;8.80;;;21.30;50.40;;;;;;349685;28;950;-58
2023/10/11 00:30:02;;;;;;;14.38;9.02;;;21.30;50.40;;;;;;349590;28;1193;-58
2023/10/11 00:30:13;;;;;;;14.15;9.35;;;21.30;50.40;;;;;;349658;28;991;-57
2023/10/11 00:30:30;;;;;;;13.00;9.43;;;21.30;50.40;;;;;;349590;28;1110;-58
2023/10/11 00:30:41;;;;;;;12.95;9.25;;;21.30;50.40;;;;;;349618;28;1387;-58
2023/10/11 00:30:57;;;;;;;14.05;9.05;;;21.30;50.30;;;;;;349607;28;1249;-59
2023/10/11 00:31:18;;;;;;;13.18;8.98;;;21.30;50.40;;;;;;349600;28;1106;-59
2023/10/11 00:31:31;;;;;;;14.35;9.65;;;21.30;50.40;;;;;;349619;28;1008;-58
2023/10/11 00:31:42;;;;;;;14.18;9.77;;;21.30;50.40;;;;;;349677;28;861;-57
2023/10/11 00:31:53;;;;;;;13.90;9.52;;;21.30;50.40;;;;;;349588;28;1111;-58
2023/10/11 00:32:04;;;;;;;13.75;9.35;;;21.30;50.40;;;;;;349592;28;1063;-58
2023/10/11 00:32:15;;;;;;;13.68;9.02;;;21.30;50.40;;;;;;349616;28;1258;-58
2023/10/11 00:32:25;;;;;;;12.57;8.80;;;21.30;50.40;;;;;;349664;28;1757;-58
2023/10/11 00:32:37;;;;;;;12.60;8.77;;;21.30;50.40;;;;;;349625;28;868;-59
2023/10/11 00:32:48;;;;;;;12.43;8.80;;;21.20;50.50;;;;;;349598;28;871;-58
2023/10/11 00:32:58;;;;;;;13.47;8.77;;;21.20;50.50;;;;;;349644;28;976;-59
2023/10/11 00:33:09;;;;;;;13.68;8.88;;;21.30;50.40;;;;;;349606;28;1925;-57
2023/10/11 00:33:21;;;;;;;13.18;9.15;;;21.30;50.50;;;;;;349437;28;1120;-58
2023/10/11 00:33:32;;;;;;;12.35;9.45;;;21.30;50.50;;;;;;349560;28;1026;-58
2023/10/11 00:33:43;;;;;;;12.15;9.32;;;21.30;50.50;;;;;;349517;28;1828;-58
2023/10/11 00:33:54;;;;;;;12.77;9.18;;;21.30;50.50;;;;;;349634;28;1063;-58
2023/10/11 00:34:10;;;;;;;14.53;9.10;;;21.30;50.50;;;;;;349636;28;884;-58
2023/10/11 00:34:20;;;;;;;15.10;8.85;;;21.30;50.50;;;;;;349643;28;853;-59
2023/10/11 00:34:32;;;;;;;15.48;8.95;;;21.30;50.50;;;;;;349627;28;1051;-58
2023/10/11 00:34:43;;;;;;;15.55;9.02;;;21.30;50.50;;;;;;349654;28;865;-59
2023/10/11 00:34:54;;;;;;;14.38;9.10;;;21.20;50.50;;;;;;349685;28;1042;-57
2023/10/11 00:35:06;;;;;;;13.80;8.90;;;21.20;50.50;;;;;;349568;28;984;-58
2023/10/11 00:35:20;;;;;;;13.38;8.85;;;21.30;50.50;;;;;;349678;28;873;-58
2023/10/11 00:35:32;;;;;;;14.93;8.98;;;21.30;50.50;;;;;;349566;28;1181;-58
2023/10/11 00:35:47;;;;;;;15.25;9.23;;;21.30;50.50;;;;;;349630;28;1050;-58
2023/10/11 00:36:01;;;;;;;14.77;8.75;;;21.20;50.50;;;;;;349623;28;1158;-58
2023/10/11 00:36:12;;;;;;;16.42;9.02;;;21.20;50.50;;;;;;349632;28;927;-58
2023/10/11 00:36:31;;;;;;;15.77;9.10;;;21.20;50.50;;;;;;349634;28;1260;-57
2023/10/11 00:36:45;;;;;;;14.20;9.23;;;21.20;50.40;;;;;;349466;28;1126;-59
2023/10/11 00:36:56;;;;;;;13.73;9.52;;;21.20;50.40;;;;;;349627;28;1098;-59
2023/10/11 00:37:09;;;;;;;14.02;9.52;;;21.20;50.50;;;;;;349602;28;1086;-59
2023/10/11 00:37:20;;;;;;;12.63;9.23;;;21.20;50.50;;;;;;349643;28;1024;-58
2023/10/11 00:37:31;;;;;;;12.95;8.77;;;21.20;50.40;;;;;;349576;28;964;-58
2023/10/11 00:37:44;;;;;;;12.40;9.10;;;21.20;50.40;;;;;;349584;28;1278;-58
2023/10/11 00:37:55;;;;;;;12.98;9.10;;;21.20;50.40;;;;;;349632;28;1914;-58
2023/10/11 00:38:05;;;;;;;12.27;8.98;;;21.20;50.40;;;;;;349594;28;1059;-58
2023/10/11 00:38:21;;;;;;;11.77;8.77;;;21.20;50.40;;;;;;349531;28;1299;-58
2023/10/11 00:38:32;;;;;;;11.55;8.88;;;21.20;50.30;;;;;;349627;28;988;-57
2023/10/11 00:38:50;;;;;;;13.75;9.10;;;21.20;50.30;;;;;;349618;28;865;-58
2023/10/11 00:39:00;;;;;;;13.25;9.15;;;21.20;50.30;;;;;;349532;28;1000;-59
2023/10/11 00:39:16;;;;;;;12.30;9.02;;;21.20;50.30;;;;;;349666;28;813;-59
2023/10/11 00:39:27;;;;;;;11.77;8.93;;;21.20;50.20;;;;;;349601;28;1000;-58
2023/10/11 00:39:38;;;;;;;11.07;8.83;;;21.20;50.20;;;;;;349630;28;1095;-58
2023/10/11 00:39:48;;;;;;;10.70;9.00;;;21.20;50.10;;;;;;349546;28;1823;-57
2023/10/11 00:40:02;;;;;;;12.25;9.05;;;21.20;50.20;;;;;;349652;28;1019;-58
2023/10/11 00:40:14;;;;;;;12.08;8.94;;;21.20;50.20;;;;;;349622;28;825;-58
2023/10/11 00:40:25;;;;;;;13.13;8.98;;;21.20;50.20;;;;;;349583;28;1929;-59
2023/10/11 00:40:36;;;;;;;13.27;9.18;;;21.20;50.20;;;;;;349498;28;1202;-58
2023/10/11 00:41:30;;;;;;;13.63;8.88;;;21.20;50.20;;;;;;349485;28;995;-58
2023/10/11 00:41:41;;;;;;;13.35;8.98;;;21.20;50.20;;;;;;349584;28;1051;-58
2023/10/11 00:41:53;;;;;;;13.25;8.90;;;21.20;50.20;;;;;;349603;28;1554;-57
2023/10/11 00:42:04;;;;;;;13.57;8.95;;;21.20;50.20;;;;;;349615;28;935;-59
2023/10/11 00:42:14;;;;;;;13.48;8.90;;;21.20;50.20;;;;;;349559;28;1083;-58
2023/10/11 00:42:27;;;;;;;12.83;8.73;;;21.20;50.10;;;;;;349633;28;1019;-58
2023/10/11 00:42:38;;;;;;;11.73;8.48;;;21.20;50.10;;;;;;349592;28;1111;-58
2023/10/11 00:42:50;;;;;;;12.57;8.63;;;21.20;50.10;;;;;;349613;28;1103;-58
2023/10/11 00:43:00;;;;;;;13.45;9.10;;;21.20;50.20;;;;;;349488;28;1194;-59
2023/10/11 00:43:16;;;;;;;13.67;9.07;;;21.20;50.20;;;;;;349645;28;857;-57
2023/10/11 00:43:37;;;;;;;11.07;8.50;;;21.20;50.20;;;;;;349551;28;2006;-58
2023/10/11 00:43:55;;;;;;;12.00;9.02;;;21.20;50.30;;;;;;349557;28;1018;-57
2023/10/11 00:44:06;;;;;;;12.90;8.88;;;21.20;50.30;;;;;;349558;28;1347;-58
2023/10/11 00:44:20;;;;;;;12.07;8.47;;;21.20;50.20;;;;;;349634;28;829;-57
2023/10/11 00:44:32;;;;;;;11.65;8.48;;;21.20;50.20;;;;;;349599;28;1016;-59
2023/10/11 00:44:44;;;;;;;14.20;9.00;;;21.20;50.20;;;;;;349584;28;1087;-58
2023/10/11 00:44:55;;;;;;;13.55;9.05;;;21.20;50.20;;;;;;349671;28;988;-58
2023/10/11 00:45:08;;;;;;;13.77;9.02;;;21.20;50.20;;;;;;349569;28;1031;-57
2023/10/11 00:45:22;;;;;;;13.50;8.93;;;21.20;50.20;;;;;;349602;28;1043;-58
2023/10/11 00:45:36;;;;;;;13.38;9.15;;;21.20;50.10;;;;;;349532;28;1122;-58
2023/10/11 00:45:48;;;;;;;12.20;8.95;;;21.20;50.10;;;;;;349619;28;996;-58
2023/10/11 00:45:59;;;;;;;12.48;8.68;;;21.20;50.10;;;;;;349622;28;1122;-57
2023/10/11 00:46:10;;;;;;;13.73;8.75;;;21.20;50.10;;;;;;349494;28;1216;-58
2023/10/11 00:46:36;;;;;;;12.73;8.60;;;21.20;50.10;;;;;;349709;28;1015;-58
2023/10/11 00:46:57;;;;;;;12.55;8.85;;;21.20;50.10;;;;;;349637;28;1173;-58
2023/10/11 00:47:08;;;;;;;13.98;9.15;;;21.10;50.10;;;;;;349606;28;898;-59
2023/10/11 00:47:20;;;;;;;15.37;9.17;;;21.20;50.10;;;;;;349650;28;1182;-58
2023/10/11 00:47:31;;;;;;;15.40;8.80;;;21.20;50.10;;;;;;349597;28;1114;-58
2023/10/11 00:47:45;;;;;;;14.43;8.50;;;21.20;50.10;;;;;;349521;28;904;-58
2023/10/11 00:47:56;;;;;;;13.55;8.65;;;21.20;50.10;;;;;;349617;28;1094;-58
2023/10/11 00:48:10;;;;;;;13.20;9.02;;;21.10;50.10;;;;;;349570;28;1130;-58
2023/10/11 00:48:25;;;;;;;13.16;9.14;;;21.20;50.10;;;;;;349592;28;1334;-58
2023/10/11 00:48:53;;;;;;;14.05;8.95;;;21.10;50.10;;;;;;349587;28;1095;-58
2023/10/11 00:49:14;;;;;;;12.73;8.95;;;21.20;50.10;;;;;;349513;28;1142;-58
2023/10/11 00:49:35;;;;;;;12.63;8.68;;;21.10;50.10;;;;;;349610;28;1087;-58
2023/10/11 00:49:45;;;;;;;14.82;8.80;;;21.10;50.10;;;;;;349618;28;864;-58
2023/10/11 00:49:58;;;;;;;14.63;8.98;;;21.10;50.10;;;;;;349543;28;1402;-57
2023/10/11 00:50:14;;;;;;;14.20;9.18;;;21.10;50.10;;;;;;349588;28;995;-58
2023/10/11 00:50:30;;;;;;;14.70;9.20;;;21.10;50.10;;;;;;349608;28;1134;-58
2023/10/11 00:50:43;;;;;;;13.68;8.77;;;21.10;50.20;;;;;;349477;28;1194;-57
2023/10/11 00:50:55;;;;;;;14.55;9.07;;;21.10;50.20;;;;;;349612;28;1071;-57
2023/10/11 00:51:07;;;;;;;15.40;9.13;;;21.10;50.20;;;;;;349599;28;1189;-58
2023/10/11 00:51:26;;;;;;;14.90;8.68;;;21.10;50.20;;;;;;349654;28;976;-58
2023/10/11 00:51:41;;;;;;;15.73;8.80;;;21.10;50.30;;;;;;349636;28;1035;-58
2023/10/11 00:51:52;;;;;;;15.77;9.23;;;21.00;50.20;;;;;;349648;28;903;-58
2023/10/11 00:52:06;;;;;;;14.80;9.25;;;21.00;50.10;;;;;;349576;28;1118;-59
2023/10/11 00:52:17;;;;;;;14.10;9.23;;;21.10;50.10;;;;;;349542;28;1066;-58
2023/10/11 00:52:30;;;;;;;13.88;8.82;;;21.10;50.10;;;;;;349629;28;1078;-59
2023/10/11 00:52:45;;;;;;;14.35;8.82;;;21.00;50.00;;;;;;349640;28;996;-59
2023/10/11 00:53:00;;;;;;;12.52;8.80;;;21.10;50.10;;;;;;349645;28;1114;-59
2023/10/11 00:53:12;;;;;;;11.18;8.88;;;21.00;50.10;;;;;;349540;28;1066;-59
2023/10/11 00:53:26;;;;;;;13.23;8.93;;;21.00;50.10;;;;;;349403;28;1280;-58
2023/10/11 00:53:38;;;;;;;14.02;8.90;;;21.10;50.10;;;;;;349475;28;1888;-58
2023/10/11 00:53:49;;;;;;;13.35;8.85;;;21.00;50.20;;;;;;349637;28;938;-58
2023/10/11 00:54:02;;;;;;;12.13;8.50;;;21.00;50.20;;;;;;349513;28;1464;-58
2023/10/11 00:54:15;;;;;;;13.77;8.75;;;21.00;50.20;;;;;;349575;28;1479;-58
2023/10/11 00:54:27;;;;;;;14.10;9.32;;;21.00;50.20;;;;;;349641;28;1042;-59
2023/10/11 00:54:38;;;;;;;12.77;9.25;;;21.00;50.20;;;;;;349608;28;1093;-59
2023/10/11 00:54:49;;;;;;;14.70;8.82;;;21.00;50.20;;;;;;349528;28;1204;-57
2023/10/11 00:55:02;;;;;;;14.45;8.55;;;21.00;50.20;;;;;;349578;28;1122;-58
2023/10/11 00:55:23;;;;;;;13.32;8.80;;;21.00;50.20;;;;;;349569;28;1279;-58
2023/10/11 00:55:34;;;;;;;11.77;8.93;;;20.90;50.20;;;;;;349552;28;956;-58
2023/10/11 00:55:45;;;;;;;12.25;8.80;;;21.00;50.20;;;;;;349613;28;1071;-58
2023/10/11 00:55:57;;;;;;;13.05;8.38;;;20.90;50.20;;;;;;349600;28;1438;-58
2023/10/11 00:56:08;;;;;;;13.70;8.88;;;21.00;50.20;;;;;;349553;28;1030;-59
2023/10/11 00:56:20;;;;;;;13.90;9.07;;;21.00;50.20;;;;;;349640;28;1078;-58
2023/10/11 00:56:31;;;;;;;14.45;9.13;;;21.00;50.10;;;;;;349596;28;1036;-58
2023/10/11 00:56:44;;;;;;;13.27;8.80;;;20.90;50.10;;;;;;349540;28;1060;-58
2023/10/11 00:56:55;;;;;;;12.02;8.73;;;21.00;50.20;;;;;;349635;28;1871;-57
2023/10/11 00:57:06;;;;;;;11.63;8.57;;;21.00;50.20;;;;;;349612;28;932;-58
2023/10/11 00:57:18;;;;;;;11.73;8.70;;;21.00;50.20;;;;;;349520;28;1102;-58
2023/10/11 00:57:29;;;;;;;12.98;8.43;;;21.00;50.20;;;;;;349577;28;1059;-59
2023/10/11 00:57:40;;;;;;;13.40;8.77;;;20.90;50.20;;;;;;349681;28;979;-58
2023/10/11 00:57:53;;;;;;;13.63;9.05;;;20.90;50.20;;;;;;349504;28;1424;-58
2023/10/11 00:58:04;;;;;;;13.95;9.35;;;20.90;50.20;;;;;;349552;28;1236;-57
2023/10/11 00:58:16;;;;;;;13.10;8.95;;;21.00;50.30;;;;;;349624;28;1054;-59
2023/10/11 00:58:28;;;;;;;12.48;8.77;;;21.00;50.20;;;;;;349501;28;1106;-57
2023/10/11 00:58:38;;;;;;;13.02;8.80;;;20.90;50.20;;;;;;349630;28;1094;-58
2023/10/11 00:58:50;;;;;;;14.02;9.00;;;21.00;50.20;;;;;;349648;28;1007;-58
2023/10/11 00:59:08;;;;;;;13.43;8.95;;;20.90;50.20;;;;;;349457;28;1459;-58
2023/10/11 00:59:21;;;;;;;13.52;8.60;;;20.90;50.20;;;;;;349633;28;1035;-58
2023/10/11 00:59:32;;;;;;;14.05;8.63;;;20.90;50.20;;;;;;349472;28;1678;-58
2023/10/11 00:59:43;;;;;;;12.80;8.80;;;20.90;50.20;;;;;;349649;28;1152;-57
2023/10/11 00:59:54;;;;;;;11.95;8.70;;;20.90;50.20;;;;;;349597;28;2494;-57
2023/10/11 01:00:05;;;;;;;13.10;8.73;;;20.90;50.20;;;;;;349578;28;1050;-58
2023/10/11 01:00:21;;;;;;;12.70;8.45;;;20.90;50.10;;;;;;349655;28;877;-59
2023/10/11 01:00:36;;;;;;;14.20;8.57;;;20.90;50.10;;;;;;349482;28;1906;-58
2023/10/11 01:00:48;;;;;;;15.15;8.73;;;20.90;50.10;;;;;;349509;28;1046;-58
2023/10/11 01:01:02;;;;;;;13.90;8.93;;;20.90;50.10;;;;;;349650;28;867;-58
2023/10/11 01:01:14;;;;;;;13.52;8.60;;;20.90;50.10;;;;;;349548;28;1010;-58
2023/10/11 01:01:25;;;;;;;13.63;8.95;;;20.90;50.10;;;;;;349661;28;1027;-57
2023/10/11 01:01:42;;;;;;;13.52;8.93;;;20.90;50.10;;;;;;349518;28;1962;-58
2023/10/11 01:01:55;;;;;;;12.23;9.05;;;20.90;50.10;;;;;;349573;28;1105;-58
2023/10/11 01:02:07;;;;;;;12.10;9.00;;;20.90;50.10;;;;;;349539;28;979;-59
2023/10/11 01:02:18;;;;;;;12.00;8.93;;;20.90;50.10;;;;;;349551;28;1107;-58
2023/10/11 01:02:31;;;;;;;11.82;9.10;;;20.90;50.20;;;;;;349659;28;983;-58
2023/10/11 01:02:45;;;;;;;12.45;8.60;;;20.90;50.20;;;;;;349542;28;1108;-58
2023/10/11 01:02:56;;;;;;;13.00;8.70;;;20.90;50.20;;;;;;349616;28;1067;-58
2023/10/11 01:03:08;;;;;;;13.93;8.60;;;20.90;50.20;;;;;;349588;28;1168;-58
2023/10/11 01:03:21;;;;;;;13.85;8.88;;;20.90;50.20;;;;;;349567;28;1115;-59
2023/10/11 01:03:33;;;;;;;12.70;9.00;;;20.90;50.20;;;;;;349653;28;1110;-59
2023/10/11 01:03:44;;;;;;;13.52;8.77;;;20.90;50.20;;;;;;349506;28;1127;-59
2023/10/11 01:03:55;;;;;;;14.15;8.55;;;20.90;50.30;;;;;;349645;28;999;-58
2023/10/11 01:04:06;;;;;;;13.70;8.48;;;20.90;50.30;;;;;;349583;28;932;-59
2023/10/11 01:04:18;;;;;;;13.63;8.80;;;20.90;50.30;;;;;;349585;28;879;-59
2023/10/11 01:04:38;;;;;;;13.38;8.90;;;20.90;50.20;;;;;;349436;28;1067;-58
2023/10/11 01:04:49;;;;;;;12.18;8.27;;;20.90;50.30;;;;;;349406;28;991;-58
2023/10/11 01:05:01;;;;;;;11.55;8.43;;;20.80;50.20;;;;;;349457;28;1130;-58
2023/10/11 01:05:12;;;;;;;12.35;9.00;;;20.80;50.30;;;;;;349439;28;1036;-58
2023/10/11 01:05:24;;;;;;;12.88;8.82;;;20.80;50.30;;;;;;349426;28;1042;-58
2023/10/11 01:05:43;;;;;;;15.40;8.80;;;20.90;50.30;;;;;;349504;28;1083;-58
2023/10/11 01:05:55;;;;;;;15.35;8.68;;;20.80;50.30;;;;;;349500;28;959;-59
2023/10/11 01:06:06;;;;;;;14.07;8.57;;;20.80;50.30;;;;;;349465;28;1463;-58
2023/10/11 01:06:17;;;;;;;14.45;8.70;;;20.80;50.30;;;;;;349364;28;1135;-58
2023/10/11 01:06:28;;;;;;;15.50;8.95;;;20.80;50.30;;;;;;349582;28;972;-58
2023/10/11 01:06:39;;;;;;;15.07;8.90;;;20.80;50.30;;;;;;349496;28;1023;-58
2023/10/11 01:06:50;;;;;;;13.70;8.90;;;20.80;50.30;;;;;;349636;28;1071;-58
2023/10/11 01:07:02;;;;;;;12.20;8.70;;;20.80;50.40;;;;;;349598;28;1071;-58
2023/10/11 01:07:12;;;;;;;10.98;8.48;;;20.80;50.40;;;;;;349615;28;892;-58
2023/10/11 01:07:23;;;;;;;11.17;8.53;;;20.80;50.40;;;;;;349559;28;995;-57
2023/10/11 01:07:33;;;;;;;12.80;8.48;;;20.80;50.50;;;;;;349640;28;916;-58
2023/10/11 01:07:44;;;;;;;12.35;8.43;;;20.80;50.50;;;;;;349548;28;907;-57
2023/10/11 01:07:55;;;;;;;13.25;8.85;;;20.80;50.50;;;;;;349641;28;1070;-58
2023/10/11 01:08:06;;;;;;;12.65;8.90;;;20.80;50.50;;;;;;349523;28;1062;-58
2023/10/11 01:08:17;;;;;;;12.40;8.98;;;20.70;50.50;;;;;;349643;28;925;-58
2023/10/11 01:08:38;;;;;;;12.67;8.73;;;20.70;50.60;;;;;;349578;28;991;-58
2023/10/11 01:08:49;;;;;;;13.35;8.55;;;20.70;50.50;;;;;;349542;28;1039;-58
2023/10/11 01:08:59;;;;;;;12.80;8.70;;;20.70;50.50;;;;;;349568;28;1000;-58
2023/10/11 01:09:26;;;;;;;13.25;8.95;;;20.70;50.50;;;;;;349525;28;980;-58
2023/10/11 01:09:37;;;;;;;14.02;8.85;;;20.70;50.50;;;;;;349485;28;1007;-58
2023/10/11 01:09:48;;;;;;;13.43;8.52;;;20.70;50.60;;;;;;349615;28;1027;-58